Time;durP1;ratioP1;P1;durP2;ratioP2;P2;SDS_P1;SDS_P2;PMS_P1;PMS_P2;Temp;Humidity;BMP_temperature;BMP_pressure;BME280_temperature;BME280_humidity;BME280_pressure;Samples;Min_cycle;Max_cycle;Signal;HPM_P1;HPM_P2
2021/07/07 00:00:25;;;;;;;2.53;1.00;;;20.80;73.50;;;;;;5073665;28;20356;-67
2021/07/07 00:02:51;;;;;;;3.38;0.98;;;20.80;73.50;;;;;;5073209;28;20581;-68
2021/07/07 00:05:19;;;;;;;3.85;0.80;;;20.70;73.60;;;;;;5073343;28;20025;-65
2021/07/07 00:07:45;;;;;;;2.85;0.90;;;20.70;73.70;;;;;;5072497;28;20031;-68
2021/07/07 00:10:17;;;;;;;5.22;0.85;;;20.70;73.80;;;;;;5073138;28;20032;-68
2021/07/07 00:12:43;;;;;;;2.58;1.00;;;20.70;73.90;;;;;;5073226;28;20394;-68
2021/07/07 00:15:12;;;;;;;4.63;0.98;;;20.70;74.00;;;;;;5073485;28;20593;-67
2021/07/07 00:17:38;;;;;;;2.85;0.93;;;20.70;74.00;;;;;;5073022;28;20028;-68
2021/07/07 00:20:07;;;;;;;2.55;0.82;;;20.70;74.00;;;;;;5072102;28;20025;-68
2021/07/07 00:22:33;;;;;;;1.98;0.80;;;20.70;74.10;;;;;;5070720;28;20569;-68
2021/07/07 00:24:58;;;;;;;3.90;1.10;;;20.70;74.20;;;;;;5073106;28;20024;-64
2021/07/07 00:27:24;;;;;;;5.53;1.00;;;20.70;74.10;;;;;;5072100;28;20028;-68
2021/07/07 00:29:51;;;;;;;1.73;0.90;;;20.70;74.20;;;;;;5071845;28;20020;-68
2021/07/07 00:32:18;;;;;;;3.72;1.10;;;20.60;74.30;;;;;;5073089;28;20024;-67
2021/07/07 00:34:44;;;;;;;2.33;0.73;;;20.60;74.50;;;;;;5073086;28;20020;-67
2021/07/07 00:37:10;;;;;;;2.55;0.80;;;20.60;74.40;;;;;;5071300;28;20032;-67
2021/07/07 00:39:36;;;;;;;2.60;0.90;;;20.60;74.60;;;;;;5072749;28;20021;-68
2021/07/07 00:42:01;;;;;;;2.15;0.80;;;20.60;74.80;;;;;;5072442;28;20039;-68
2021/07/07 00:44:27;;;;;;;3.03;1.00;;;20.60;74.80;;;;;;5072715;28;20482;-68
2021/07/07 00:46:53;;;;;;;3.00;0.90;;;20.60;74.80;;;;;;5072127;28;20025;-68
2021/07/07 00:49:18;;;;;;;3.17;0.90;;;20.50;75.30;;;;;;5071118;28;20032;-68
2021/07/07 00:51:44;;;;;;;3.45;1.10;;;20.50;74.90;;;;;;5071366;28;20021;-67
2021/07/07 00:54:10;;;;;;;4.00;0.98;;;20.50;75.00;;;;;;5072552;28;20379;-67
2021/07/07 00:56:36;;;;;;;3.22;1.13;;;20.50;75.60;;;;;;5071763;28;20031;-68
2021/07/07 00:59:03;;;;;;;3.15;1.00;;;20.40;76.10;;;;;;5071737;28;20037;-68
2021/07/07 01:01:29;;;;;;;2.00;0.80;;;20.50;76.40;;;;;;5072026;28;20024;-69
2021/07/07 01:03:55;;;;;;;2.28;0.85;;;20.50;76.20;;;;;;5071883;28;20021;-69
2021/07/07 01:06:21;;;;;;;3.38;1.10;;;20.50;75.90;;;;;;5072075;28;20031;-70
2021/07/07 01:08:46;;;;;;;2.08;0.80;;;20.50;75.80;;;;;;5071477;28;20054;-68
2021/07/07 01:11:12;;;;;;;3.53;1.00;;;20.50;75.60;;;;;;5069364;28;20027;-64
2021/07/07 01:13:39;;;;;;;2.90;0.90;;;20.50;75.60;;;;;;5071908;28;20109;-69
2021/07/07 01:16:05;;;;;;;2.08;0.80;;;20.50;75.80;;;;;;5072098;28;20033;-69
2021/07/07 01:18:31;;;;;;;1.90;1.00;;;20.50;75.70;;;;;;5071413;28;20090;-63
2021/07/07 01:20:56;;;;;;;1.23;0.75;;;20.50;76.00;;;;;;5071503;28;20048;-68
2021/07/07 01:23:22;;;;;;;2.70;1.00;;;20.50;76.30;;;;;;5070953;28;20021;-68
2021/07/07 01:25:48;;;;;;;2.17;0.88;;;20.40;76.30;;;;;;5071364;28;20044;-68
2021/07/07 01:28:16;;;;;;;2.72;1.00;;;20.40;76.10;;;;;;5071810;28;20024;-68
2021/07/07 01:30:41;;;;;;;3.08;0.80;;;20.40;76.40;;;;;;5071433;28;20048;-68
2021/07/07 01:33:07;;;;;;;2.92;1.10;;;20.40;76.40;;;;;;5071559;28;20051;-67
2021/07/07 01:41:30;;;;;;;2.00;0.73;;;20.40;76.50;;;;;;5024181;28;20044;-68
2021/07/07 01:43:56;;;;;;;3.00;0.88;;;20.40;76.00;;;;;;5012890;28;20030;-67
2021/07/07 01:46:21;;;;;;;3.38;1.02;;;20.40;76.10;;;;;;5024666;28;20022;-68
2021/07/07 01:48:47;;;;;;;1.85;0.88;;;20.40;75.90;;;;;;5036430;28;20389;-68
2021/07/07 01:51:12;;;;;;;2.35;0.90;;;20.40;76.30;;;;;;5037496;28;20486;-68
2021/07/07 01:53:38;;;;;;;1.88;1.00;;;20.30;76.60;;;;;;5031179;28;20383;-68
2021/07/07 01:56:04;;;;;;;2.67;1.00;;;20.30;77.00;;;;;;5029880;28;20057;-67
2021/07/07 01:58:30;;;;;;;1.52;0.60;;;20.30;77.30;;;;;;5027551;28;20037;-68
2021/07/07 02:00:56;;;;;;;2.72;0.90;;;20.30;77.40;;;;;;5040188;22;20053;-68
2021/07/07 02:03:21;;;;;;;2.53;0.80;;;20.30;77.40;;;;;;5006778;28;20029;-68
2021/07/07 02:05:47;;;;;;;3.55;1.00;;;20.30;77.60;;;;;;5006634;28;20014;-68
2021/07/07 02:08:13;;;;;;;2.25;1.00;;;20.30;77.70;;;;;;5011311;28;20483;-69
2021/07/07 02:10:39;;;;;;;2.90;1.00;;;20.30;77.60;;;;;;5010010;28;20045;-68
2021/07/07 02:13:07;;;;;;;1.38;0.73;;;20.30;77.70;;;;;;5009906;28;20034;-68
2021/07/07 02:15:34;;;;;;;1.88;0.80;;;20.30;78.00;;;;;;5027328;28;20036;-68
2021/07/07 02:18:01;;;;;;;3.28;1.10;;;20.30;77.80;;;;;;5015371;28;20052;-68
2021/07/07 02:20:30;;;;;;;2.45;0.82;;;20.30;77.90;;;;;;5015381;28;20034;-69
2021/07/07 02:22:56;;;;;;;2.65;0.77;;;20.30;78.20;;;;;;5014423;28;20088;-69
2021/07/07 02:25:27;;;;;;;2.92;1.13;;;20.30;78.20;;;;;;5004164;28;20026;-69
2021/07/07 02:27:54;;;;;;;5.22;0.95;;;20.30;78.20;;;;;;5010556;28;20032;-68
2021/07/07 02:30:22;;;;;;;3.40;1.20;;;20.30;78.00;;;;;;5013711;28;20414;-69
2021/07/07 02:32:49;;;;;;;1.88;0.93;;;20.20;78.50;;;;;;5015239;28;20080;-69
2021/07/07 02:35:17;;;;;;;2.45;0.80;;;20.30;77.90;;;;;;5015207;28;20061;-68
2021/07/07 02:37:44;;;;;;;2.40;0.90;;;20.20;77.70;;;;;;5014928;28;20038;-68
2021/07/07 02:40:11;;;;;;;2.28;0.90;;;20.20;77.50;;;;;;5013693;28;20025;-68
2021/07/07 02:42:37;;;;;;;2.85;0.88;;;20.30;77.30;;;;;;5007529;28;20041;-69
2021/07/07 02:45:06;;;;;;;2.65;1.10;;;20.20;77.70;;;;;;5013379;28;20030;-69
2021/07/07 02:47:31;;;;;;;2.22;0.85;;;20.20;77.80;;;;;;5013816;28;20513;-68
2021/07/07 02:49:57;;;;;;;2.50;0.80;;;20.30;77.70;;;;;;5013406;28;20034;-69
2021/07/07 02:52:22;;;;;;;2.55;1.00;;;20.20;77.60;;;;;;5015193;28;20044;-68
2021/07/07 02:54:48;;;;;;;1.15;0.60;;;20.20;77.40;;;;;;5013644;28;20420;-69
2021/07/07 02:57:15;;;;;;;2.30;0.82;;;20.20;77.50;;;;;;5014397;28;20040;-69
2021/07/07 02:59:41;;;;;;;2.33;0.90;;;20.20;77.70;;;;;;5013522;28;20057;-69
2021/07/07 03:02:08;;;;;;;4.45;0.90;;;20.20;77.70;;;;;;5013324;28;20065;-70
2021/07/07 03:04:34;;;;;;;3.00;1.20;;;20.20;77.30;;;;;;5014236;28;20080;-70
2021/07/07 03:06:59;;;;;;;2.92;0.90;;;20.20;77.70;;;;;;5010876;28;20026;-69
2021/07/07 03:09:25;;;;;;;2.70;0.95;;;20.20;77.50;;;;;;5013359;28;20036;-69
2021/07/07 03:11:50;;;;;;;2.53;1.10;;;20.20;77.30;;;;;;5013504;28;20057;-69
2021/07/07 03:14:16;;;;;;;3.53;0.80;;;20.20;77.50;;;;;;5013852;28;20034;-69
2021/07/07 03:16:41;;;;;;;2.67;1.10;;;20.20;77.30;;;;;;5013120;28;20026;-68
2021/07/07 03:19:07;;;;;;;2.95;1.00;;;20.20;77.20;;;;;;5013434;28;20026;-69
2021/07/07 03:21:32;;;;;;;2.03;0.90;;;20.20;77.40;;;;;;5014455;28;20070;-69
2021/07/07 03:23:58;;;;;;;1.65;1.00;;;20.20;77.10;;;;;;5014037;28;20028;-69
2021/07/07 03:26:23;;;;;;;4.30;1.10;;;20.20;77.70;;;;;;5013307;28;20022;-68
2021/07/07 03:28:49;;;;;;;2.47;1.00;;;20.20;77.70;;;;;;5013873;28;20065;-69
2021/07/07 03:31:15;;;;;;;2.08;1.10;;;20.20;77.50;;;;;;5013091;28;20100;-68
2021/07/07 03:33:40;;;;;;;2.03;0.90;;;20.20;77.70;;;;;;5013258;28;20466;-69
2021/07/07 03:36:06;;;;;;;2.28;1.10;;;20.10;77.80;;;;;;5012890;28;20046;-69
2021/07/07 03:38:31;;;;;;;1.95;1.00;;;20.10;77.80;;;;;;5013682;28;20116;-69
2021/07/07 03:40:57;;;;;;;2.05;0.93;;;20.10;77.90;;;;;;5012919;28;20168;-69
2021/07/07 03:43:22;;;;;;;2.22;1.00;;;20.10;77.90;;;;;;5013343;28;20029;-69
2021/07/07 03:45:48;;;;;;;2.30;0.93;;;20.10;77.70;;;;;;5013449;28;20037;-69
2021/07/07 03:48:14;;;;;;;2.17;0.93;;;20.10;77.80;;;;;;5013764;28;20030;-69
2021/07/07 03:50:40;;;;;;;2.25;1.00;;;20.10;77.60;;;;;;5012857;28;20022;-69
2021/07/07 03:53:07;;;;;;;3.10;1.02;;;20.10;77.60;;;;;;5012503;28;20034;-69
2021/07/07 03:55:33;;;;;;;1.90;0.90;;;20.10;77.70;;;;;;5012335;28;20438;-68
2021/07/07 03:58:00;;;;;;;1.73;0.90;;;20.10;77.70;;;;;;5012187;28;20040;-68
2021/07/07 04:00:27;;;;;;;3.97;1.20;;;20.10;77.90;;;;;;5013292;28;20026;-68
2021/07/07 04:02:54;;;;;;;3.20;1.33;;;20.10;77.90;;;;;;5013899;28;20109;-68
2021/07/07 04:05:20;;;;;;;2.30;1.10;;;20.10;77.70;;;;;;5013630;28;20455;-68
2021/07/07 04:07:45;;;;;;;2.20;1.00;;;20.10;77.80;;;;;;5012173;28;20065;-68
2021/07/07 04:10:13;;;;;;;2.60;1.10;;;20.10;77.90;;;;;;5012087;28;20041;-68
2021/07/07 04:12:40;;;;;;;3.38;1.00;;;20.10;78.00;;;;;;5013125;28;20054;-68
2021/07/07 04:15:07;;;;;;;2.22;1.08;;;20.10;78.00;;;;;;5012073;28;20104;-69
2021/07/07 04:17:33;;;;;;;2.13;0.82;;;20.10;78.20;;;;;;5011680;28;20034;-68
2021/07/07 04:19:59;;;;;;;3.15;0.98;;;20.10;78.10;;;;;;5013154;28;20398;-68
2021/07/07 04:22:25;;;;;;;2.25;1.02;;;20.10;78.40;;;;;;5011588;28;20022;-68
2021/07/07 04:24:50;;;;;;;2.30;0.90;;;20.10;78.40;;;;;;5011290;28;20022;-68
2021/07/07 04:27:16;;;;;;;4.00;0.90;;;20.10;78.30;;;;;;5010545;28;20399;-68
2021/07/07 04:29:41;;;;;;;2.60;1.10;;;20.10;78.30;;;;;;5011423;28;20487;-68
2021/07/07 04:32:08;;;;;;;2.83;1.20;;;20.10;78.50;;;;;;5013350;28;20498;-68
2021/07/07 04:34:33;;;;;;;2.17;0.93;;;20.10;78.40;;;;;;5011146;28;20045;-69
2021/07/07 04:36:59;;;;;;;2.35;0.98;;;20.10;78.50;;;;;;5005935;28;20027;-68
2021/07/07 04:39:25;;;;;;;4.10;1.40;;;20.10;78.70;;;;;;5008917;28;20033;-68
2021/07/07 04:41:50;;;;;;;4.07;1.05;;;20.10;78.80;;;;;;5011388;28;20026;-68
2021/07/07 04:44:16;;;;;;;2.75;0.98;;;20.10;78.90;;;;;;5011971;28;20022;-68
2021/07/07 04:46:41;;;;;;;3.53;1.10;;;20.10;78.80;;;;;;5007964;28;20600;-68
2021/07/07 04:49:07;;;;;;;1.30;1.00;;;20.10;78.90;;;;;;5006585;28;20052;-69
2021/07/07 04:51:32;;;;;;;3.13;1.35;;;20.10;79.00;;;;;;5000291;28;20038;-68
2021/07/07 04:53:58;;;;;;;4.90;1.98;;;20.10;79.20;;;;;;5004422;28;20036;-68
2021/07/07 04:56:24;;;;;;;5.85;2.00;;;20.10;79.40;;;;;;5004245;28;20034;-68
2021/07/07 04:58:49;;;;;;;4.30;1.80;;;20.10;79.40;;;;;;5006185;28;20026;-68
2021/07/07 05:01:15;;;;;;;3.78;1.42;;;20.10;79.40;;;;;;5006159;28;20080;-68
2021/07/07 05:03:40;;;;;;;4.63;1.70;;;20.10;79.40;;;;;;5005755;28;20050;-68
2021/07/07 05:06:06;;;;;;;5.28;1.40;;;20.10;79.50;;;;;;5006391;28;20030;-68
2021/07/07 05:08:32;;;;;;;3.28;1.40;;;20.10;79.50;;;;;;5004739;28;20514;-68
2021/07/07 05:10:57;;;;;;;4.00;1.50;;;20.10;79.70;;;;;;5006116;28;20305;-69
2021/07/07 05:13:23;;;;;;;4.15;1.25;;;20.10;79.70;;;;;;5005337;28;20036;-68
2021/07/07 05:15:50;;;;;;;4.22;1.35;;;20.20;79.80;;;;;;5004128;28;20551;-68
2021/07/07 05:18:16;;;;;;;4.13;1.30;;;20.10;79.70;;;;;;5005739;28;20035;-68
2021/07/07 05:20:42;;;;;;;2.78;1.02;;;20.20;79.90;;;;;;5005754;28;20110;-67
2021/07/07 05:23:08;;;;;;;3.53;1.40;;;20.20;79.90;;;;;;5004501;28;20025;-69
2021/07/07 05:25:35;;;;;;;3.00;1.63;;;20.20;79.80;;;;;;5005487;28;20106;-67
2021/07/07 05:28:01;;;;;;;6.05;1.23;;;20.20;79.80;;;;;;5004082;28;20101;-68
2021/07/07 05:30:28;;;;;;;2.83;1.13;;;20.20;79.80;;;;;;5005654;28;20050;-67
2021/07/07 05:32:54;;;;;;;2.83;1.02;;;20.20;79.80;;;;;;5005872;28;20046;-68
2021/07/07 05:35:19;;;;;;;4.13;1.13;;;20.20;79.80;;;;;;5006015;28;20585;-68
2021/07/07 05:37:46;;;;;;;2.22;1.00;;;20.20;79.80;;;;;;5003391;28;20104;-68
2021/07/07 05:40:13;;;;;;;3.63;1.20;;;20.20;79.80;;;;;;5003941;28;20026;-68
2021/07/07 05:42:39;;;;;;;3.33;1.00;;;20.20;79.80;;;;;;5003865;28;20410;-68
2021/07/07 05:45:05;;;;;;;3.78;1.20;;;20.30;79.90;;;;;;5003082;28;20024;-68
2021/07/07 05:47:30;;;;;;;3.58;1.10;;;20.30;79.90;;;;;;5001253;28;20029;-69
2021/07/07 05:49:57;;;;;;;3.17;1.10;;;20.30;79.90;;;;;;5005581;28;20522;-69
2021/07/07 05:52:24;;;;;;;2.25;1.10;;;20.30;79.60;;;;;;5003974;28;20509;-68
2021/07/07 05:54:51;;;;;;;3.92;1.05;;;20.40;79.30;;;;;;5004086;28;20514;-68
2021/07/07 05:57:16;;;;;;;3.28;1.33;;;20.50;78.90;;;;;;5002810;28;20037;-68
2021/07/07 05:59:43;;;;;;;3.78;1.50;;;20.50;79.10;;;;;;5005534;28;20050;-68
2021/07/07 06:02:09;;;;;;;4.45;1.48;;;20.60;78.50;;;;;;5004975;28;20045;-69
2021/07/07 06:04:34;;;;;;;5.55;1.10;;;20.60;78.40;;;;;;5005117;28;20042;-68
2021/07/07 06:07:00;;;;;;;4.10;1.27;;;20.70;78.20;;;;;;5003128;28;20049;-69
2021/07/07 06:09:25;;;;;;;3.38;1.30;;;20.80;77.90;;;;;;5005617;28;20026;-69
2021/07/07 06:11:51;;;;;;;6.10;1.42;;;20.80;77.60;;;;;;5004152;28;20451;-69
2021/07/07 06:14:17;;;;;;;3.65;1.30;;;20.90;77.50;;;;;;5004833;28;20025;-68
2021/07/07 06:16:43;;;;;;;4.72;1.52;;;21.00;77.00;;;;;;5005425;28;20538;-68
2021/07/07 06:19:09;;;;;;;4.30;1.38;;;21.10;76.40;;;;;;4994209;28;20650;-69
2021/07/07 06:21:35;;;;;;;8.32;1.65;;;21.20;76.00;;;;;;4989117;28;20029;-69
2021/07/07 06:24:01;;;;;;;5.80;1.70;;;21.30;75.60;;;;;;5001395;28;20077;-69
2021/07/07 06:26:31;;;;;;;7.60;1.70;;;21.40;75.80;;;;;;4997502;28;20195;-68
2021/07/07 06:28:56;;;;;;;10.88;1.50;;;21.50;74.10;;;;;;5001133;28;20032;-69
2021/07/07 06:31:23;;;;;;;10.35;2.10;;;21.60;75.00;;;;;;5002681;28;20030;-68
2021/07/07 06:33:48;;;;;;;10.70;2.28;;;21.70;72.70;;;;;;5005437;28;20113;-68
2021/07/07 06:36:14;;;;;;;8.85;1.67;;;21.80;71.70;;;;;;5003864;28;20465;-68
2021/07/07 06:38:39;;;;;;;7.50;1.73;;;21.80;71.20;;;;;;5002717;28;20030;-69
2021/07/07 06:41:05;;;;;;;9.05;1.80;;;21.90;70.70;;;;;;5000197;28;20037;-69
2021/07/07 06:43:30;;;;;;;6.72;1.80;;;22.00;69.00;;;;;;5004718;28;20018;-69
2021/07/07 06:45:56;;;;;;;5.57;1.58;;;21.90;67.80;;;;;;5003361;28;20241;-70
2021/07/07 06:48:21;;;;;;;5.07;1.55;;;22.00;67.70;;;;;;5003853;28;20108;-72
2021/07/07 06:50:47;;;;;;;5.65;1.65;;;22.00;67.00;;;;;;4998206;28;20026;-68
2021/07/07 06:53:14;;;;;;;6.78;1.55;;;22.00;66.80;;;;;;5000847;28;20033;-68
2021/07/07 06:55:40;;;;;;;5.05;1.50;;;22.00;65.90;;;;;;5005211;28;20057;-69
2021/07/07 06:58:12;;;;;;;4.82;1.48;;;22.10;65.50;;;;;;5004852;28;20062;-70
2021/07/07 07:00:37;;;;;;;;;;;22.00;65.40;;;;;;5005706;28;20120;-71
2021/07/07 07:03:03;;;;;;;7.65;1.80;;;22.10;64.70;;;;;;5007316;28;20724;-68
2021/07/07 07:05:28;;;;;;;6.53;1.90;;;22.20;64.50;;;;;;5009008;28;20034;-69
2021/07/07 07:07:54;;;;;;;6.38;2.05;;;22.30;64.90;;;;;;5008298;28;20030;-70
2021/07/07 07:10:19;;;;;;;7.65;1.60;;;22.40;64.70;;;;;;5009111;28;20041;-68
2021/07/07 07:12:45;;;;;;;6.72;1.60;;;22.50;65.40;;;;;;5007378;28;20038;-70
2021/07/07 07:15:12;;;;;;;6.13;1.60;;;22.70;64.60;;;;;;5007112;28;20066;-69
2021/07/07 07:17:38;;;;;;;5.97;1.67;;;22.70;63.60;;;;;;5008040;28;20542;-69
2021/07/07 07:20:07;;;;;;;6.72;1.63;;;22.80;63.70;;;;;;5007342;28;20037;-69
2021/07/07 07:22:32;;;;;;;6.53;1.75;;;22.80;62.20;;;;;;5008120;28;20642;-68
2021/07/07 07:24:58;;;;;;;7.88;1.95;;;22.70;62.10;;;;;;5007215;28;20061;-70
2021/07/07 07:27:23;;;;;;;6.53;1.67;;;22.70;63.00;;;;;;5008186;28;20075;-70
2021/07/07 07:29:49;;;;;;;7.32;2.10;;;22.90;63.90;;;;;;5008431;28;20029;-70
2021/07/07 07:32:15;;;;;;;9.65;2.10;;;22.90;62.50;;;;;;5008213;28;20030;-69
2021/07/07 07:34:40;;;;;;;5.90;1.67;;;23.10;62.90;;;;;;5006965;28;20056;-72
2021/07/07 07:37:09;;;;;;;4.70;1.75;;;23.20;62.40;;;;;;5008107;28;20723;-69
2021/07/07 07:39:43;;;;;;;7.80;1.83;;;23.30;61.70;;;;;;5008250;28;20026;-69
2021/07/07 07:42:15;;;;;;;7.05;1.58;;;23.50;62.30;;;;;;5008069;28;20029;-68
2021/07/07 07:44:41;;;;;;;5.60;1.60;;;23.60;61.00;;;;;;5006528;28;20037;-70
2021/07/07 07:47:07;;;;;;;7.80;1.83;;;23.70;61.40;;;;;;5007779;28;20022;-72
2021/07/07 07:49:32;;;;;;;6.13;1.65;;;23.80;61.30;;;;;;5006543;28;20552;-69
2021/07/07 07:51:58;;;;;;;10.10;1.80;;;23.80;61.20;;;;;;5007869;28;20462;-69
2021/07/07 07:54:24;;;;;;;6.55;1.80;;;23.80;62.20;;;;;;5007809;28;20040;-72
2021/07/07 07:56:50;;;;;;;6.57;1.70;;;23.80;60.90;;;;;;5006208;28;20026;-70
2021/07/07 07:59:16;;;;;;;7.13;1.73;;;23.80;60.20;;;;;;5007092;28;20479;-71
2021/07/07 08:01:41;;;;;;;7.05;1.83;;;23.90;60.80;;;;;;5002953;28;20057;-69
2021/07/07 08:04:07;;;;;;;5.43;2.17;;;23.90;60.50;;;;;;5004759;28;20495;-71
2021/07/07 08:06:34;;;;;;;8.15;2.08;;;23.90;61.10;;;;;;5005974;28;20518;-73
2021/07/07 08:09:00;;;;;;;8.25;1.90;;;23.90;60.90;;;;;;5006973;28;20038;-71
2021/07/07 08:11:26;;;;;;;8.55;2.10;;;24.00;60.70;;;;;;5007387;28;20041;-69
2021/07/07 08:13:53;;;;;;;6.80;1.98;;;24.00;60.20;;;;;;5005852;28;20026;-71
2021/07/07 08:16:19;;;;;;;6.15;1.88;;;24.00;61.30;;;;;;5007641;28;20047;-71
2021/07/07 08:18:45;;;;;;;8.57;2.17;;;24.00;61.10;;;;;;5006901;28;20026;-71
2021/07/07 08:21:10;;;;;;;10.00;2.50;;;24.00;60.70;;;;;;5007266;28;20032;-71
2021/07/07 08:23:36;;;;;;;7.00;2.00;;;24.00;61.30;;;;;;5006953;28;20957;-70
2021/07/07 08:26:01;;;;;;;7.38;1.98;;;24.00;60.40;;;;;;5007267;28;20076;-72
2021/07/07 08:28:27;;;;;;;8.95;1.90;;;24.00;60.90;;;;;;5006903;28;20044;-71
2021/07/07 08:30:53;;;;;;;6.95;2.00;;;24.00;61.10;;;;;;5007082;28;20033;-70
2021/07/07 08:33:18;;;;;;;8.27;2.08;;;24.00;60.40;;;;;;5006955;28;20113;-73
2021/07/07 08:35:44;;;;;;;7.82;1.70;;;24.00;60.90;;;;;;5006823;28;20065;-69
2021/07/07 08:38:10;;;;;;;10.43;2.33;;;24.00;61.30;;;;;;5005520;28;20080;-71
2021/07/07 08:40:36;;;;;;;7.68;1.90;;;24.10;61.80;;;;;;5006705;28;20030;-71
2021/07/07 08:43:01;;;;;;;6.78;1.63;;;24.00;61.00;;;;;;5007039;28;20479;-70
2021/07/07 08:45:27;;;;;;;7.22;2.28;;;24.00;59.80;;;;;;5006818;28;20479;-70
2021/07/07 08:47:53;;;;;;;5.97;1.90;;;24.00;60.90;;;;;;5005389;28;20561;-70
2021/07/07 08:50:25;;;;;;;9.35;2.17;;;23.90;59.00;;;;;;5006674;28;20025;-69
2021/07/07 08:52:52;;;;;;;6.47;1.70;;;23.80;58.60;;;;;;5006377;28;20398;-70
2021/07/07 08:55:19;;;;;;;7.32;2.10;;;23.70;60.30;;;;;;5006741;28;20053;-71
2021/07/07 08:57:46;;;;;;;6.75;1.95;;;23.80;59.40;;;;;;4994635;28;20034;-70
2021/07/07 09:00:36;;;;;;;11.93;2.58;;;23.80;61.90;;;;;;4985597;28;20122;-71
2021/07/07 09:03:04;;;;;;;6.85;1.77;;;23.80;60.90;;;;;;4986809;28;20108;-70
2021/07/07 09:05:30;;;;;;;6.10;2.05;;;23.80;60.60;;;;;;4985615;28;20034;-71
2021/07/07 09:08:03;;;;;;;6.95;2.05;;;23.90;61.80;;;;;;4986567;28;20041;-71
2021/07/07 09:10:31;;;;;;;5.82;2.20;;;23.90;60.50;;;;;;4986867;28;20041;-73
2021/07/07 09:13:11;;;;;;;7.97;2.22;;;23.90;60.60;;;;;;4985208;28;20057;-70
2021/07/07 09:15:37;;;;;;;7.05;2.13;;;23.80;60.90;;;;;;4986890;28;20050;-70
2021/07/07 09:18:03;;;;;;;7.20;2.25;;;23.70;61.80;;;;;;4986448;28;20373;-70
2021/07/07 09:20:36;;;;;;;5.35;1.80;;;23.80;59.70;;;;;;4985093;28;20034;-70
2021/07/07 09:23:13;;;;;;;7.60;2.08;;;23.80;60.40;;;;;;4992128;28;20053;-70
2021/07/07 09:25:47;;;;;;;9.65;2.17;;;23.90;60.40;;;;;;5004497;28;20033;-70
2021/07/07 09:28:23;;;;;;;5.85;2.10;;;23.90;61.10;;;;;;5020237;28;20032;-71
2021/07/07 09:30:51;;;;;;;6.25;1.85;;;24.00;59.40;;;;;;4994911;28;20030;-70
2021/07/07 09:33:16;;;;;;;7.85;2.20;;;24.00;60.30;;;;;;5005623;28;20030;-71
2021/07/07 09:35:42;;;;;;;9.60;2.10;;;23.90;60.00;;;;;;5002915;28;20037;-70
2021/07/07 09:38:09;;;;;;;8.85;2.10;;;24.00;61.00;;;;;;5001128;28;20113;-71
2021/07/07 09:40:41;;;;;;;7.32;2.25;;;23.90;60.30;;;;;;5003255;28;20069;-70
2021/07/07 09:43:07;;;;;;;6.30;2.00;;;23.80;59.30;;;;;;5001027;28;20022;-71
2021/07/07 09:45:32;;;;;;;6.15;2.03;;;23.70;59.50;;;;;;4999858;28;20032;-69
2021/07/07 09:48:00;;;;;;;9.13;2.22;;;23.90;58.90;;;;;;5002601;28;20809;-70
2021/07/07 09:50:25;;;;;;;6.90;1.85;;;24.00;59.30;;;;;;4994384;28;20023;-70
2021/07/07 09:52:52;;;;;;;7.95;2.22;;;24.20;58.50;;;;;;5003700;28;20114;-70
2021/07/07 09:55:18;;;;;;;5.25;1.88;;;24.30;57.10;;;;;;5005351;28;20858;-70
2021/07/07 09:57:44;;;;;;;6.45;1.83;;;24.20;56.70;;;;;;4999931;28;20491;-70
2021/07/07 10:00:19;;;;;;;5.38;1.58;;;24.10;56.70;;;;;;4999323;28;20572;-70
2021/07/07 10:02:48;;;;;;;6.57;1.95;;;24.10;56.90;;;;;;5005485;28;20407;-70
2021/07/07 10:05:16;;;;;;;8.48;2.13;;;24.10;58.60;;;;;;5002611;28;20018;-73
2021/07/07 10:07:43;;;;;;;4.65;1.60;;;24.10;57.00;;;;;;5005309;28;20061;-70
2021/07/07 10:10:14;;;;;;;4.35;1.70;;;24.10;59.90;;;;;;5003793;28;20022;-70
2021/07/07 10:12:44;;;;;;;4.90;1.70;;;24.10;56.50;;;;;;5005352;28;20655;-72
2021/07/07 10:15:12;;;;;;;5.00;1.73;;;24.00;57.40;;;;;;5003316;28;20033;-70
2021/07/07 10:17:38;;;;;;;8.43;1.95;;;24.00;57.00;;;;;;5004322;28;20403;-71
2021/07/07 10:20:05;;;;;;;7.18;1.73;;;24.00;55.80;;;;;;5004061;28;20128;-71
2021/07/07 10:22:30;;;;;;;8.07;1.98;;;24.00;55.40;;;;;;5005414;28;20087;-71
2021/07/07 10:24:57;;;;;;;5.32;1.60;;;24.00;54.10;;;;;;5004105;28;20022;-70
2021/07/07 10:27:23;;;;;;;3.58;1.55;;;23.90;54.60;;;;;;5004227;28;20014;-70
2021/07/07 10:29:49;;;;;;;5.53;1.65;;;23.70;54.10;;;;;;5004841;28;20038;-70
2021/07/07 10:32:16;;;;;;;5.32;1.77;;;23.80;55.70;;;;;;4999053;28;20041;-70
2021/07/07 10:34:41;;;;;;;5.35;1.80;;;23.80;55.90;;;;;;5001859;28;20062;-68
2021/07/07 10:37:07;;;;;;;5.70;1.55;;;24.00;56.90;;;;;;5005163;28;20053;-69
2021/07/07 10:39:33;;;;;;;6.00;1.73;;;24.10;57.10;;;;;;5008825;28;20036;-69
2021/07/07 10:42:04;;;;;;;6.60;1.90;;;23.90;56.70;;;;;;4998987;28;20018;-69
2021/07/07 10:44:35;;;;;;;6.17;1.70;;;23.80;55.20;;;;;;5008189;28;20018;-69
2021/07/07 10:47:12;;;;;;;;;;;23.90;55.60;;;;;;5006339;28;20145;-72
2021/07/07 10:49:47;;;;;;;7.95;1.60;;;24.00;55.60;;;;;;5008443;28;19910;-68
2021/07/07 10:52:48;;;;;;;6.18;1.77;;;24.00;54.80;;;;;;5005512;28;20136;-69
2021/07/07 10:55:15;;;;;;;6.55;1.65;;;24.10;54.00;;;;;;4984045;28;20041;-69
2021/07/07 10:57:42;;;;;;;7.43;1.70;;;24.10;53.30;;;;;;5002413;28;20100;-70
2021/07/07 11:00:41;;;;;;;7.75;1.60;;;24.20;54.40;;;;;;5001752;28;20057;-69
2021/07/07 11:03:36;;;;;;;6.13;1.63;;;24.20;55.70;;;;;;5006371;28;20037;-75
2021/07/07 11:06:21;;;;;;;5.10;1.33;;;24.30;53.50;;;;;;5008398;28;20034;-78
2021/07/07 11:08:48;;;;;;;7.60;1.67;;;24.30;55.80;;;;;;5004709;28;20029;-73
2021/07/07 11:11:24;;;;;;;5.60;1.70;;;24.40;56.80;;;;;;5004233;28;20073;-73
2021/07/07 11:13:52;;;;;;;6.10;1.67;;;24.40;54.20;;;;;;5004502;28;20075;-73
2021/07/07 11:16:21;;;;;;;5.00;1.75;;;24.30;54.70;;;;;;5008160;28;20029;-74
2021/07/07 11:18:47;;;;;;;4.55;1.42;;;24.30;54.20;;;;;;5003652;28;20030;-70
2021/07/07 11:21:13;;;;;;;6.85;1.70;;;24.30;54.40;;;;;;5005773;28;20033;-71
2021/07/07 11:23:39;;;;;;;5.80;1.50;;;24.20;54.00;;;;;;5007936;28;20091;-72
2021/07/07 11:26:09;;;;;;;7.55;1.75;;;24.10;53.70;;;;;;5007951;28;20496;-70
2021/07/07 11:28:35;;;;;;;4.18;1.70;;;24.10;54.10;;;;;;5007419;28;20040;-73
2021/07/07 11:31:01;;;;;;;5.78;1.58;;;24.00;56.00;;;;;;5006229;28;20058;-69
2021/07/07 11:33:27;;;;;;;8.52;2.08;;;24.10;55.60;;;;;;5006386;28;20033;-71
2021/07/07 11:35:54;;;;;;;6.00;2.00;;;24.20;57.00;;;;;;5006006;28;20029;-69
2021/07/07 11:38:26;;;;;;;7.65;2.20;;;24.20;57.00;;;;;;5004142;28;20395;-70
2021/07/07 11:40:53;;;;;;;5.35;1.80;;;24.30;56.90;;;;;;5004553;28;20574;-71
2021/07/07 11:43:30;;;;;;;8.73;1.88;;;24.30;56.70;;;;;;5005559;28;20022;-71
2021/07/07 11:46:02;;;;;;;7.75;1.90;;;24.30;56.70;;;;;;5006616;28;20025;-70
2021/07/07 11:48:32;;;;;;;;;;;24.30;56.40;;;;;;5003960;28;20018;-70
2021/07/07 11:51:11;;;;;;;5.70;1.63;;;24.30;56.30;;;;;;5006090;28;20000;-71
2021/07/07 11:53:41;;;;;;;8.40;2.17;;;24.30;56.60;;;;;;5006166;28;20127;-71
2021/07/07 11:56:08;;;;;;;5.05;1.77;;;24.30;56.80;;;;;;5006198;28;20540;-71
2021/07/07 11:58:51;;;;;;;7.30;1.73;;;24.20;56.70;;;;;;5005827;28;20120;-72
2021/07/07 12:01:31;;;;;;;6.70;1.77;;;24.30;57.00;;;;;;5005782;28;20042;-71
2021/07/07 12:03:58;;;;;;;7.20;1.75;;;24.30;56.80;;;;;;5005876;28;20084;-71
2021/07/07 12:06:38;;;;;;;4.82;1.48;;;24.30;56.80;;;;;;5005944;28;20116;-71
2021/07/07 12:09:18;;;;;;;8.95;1.98;;;24.40;57.40;;;;;;5006129;28;20487;-71
2021/07/07 12:11:58;;;;;;;5.32;1.60;;;24.30;57.00;;;;;;5005945;28;20518;-71
2021/07/07 12:14:26;;;;;;;8.18;1.80;;;24.30;57.60;;;;;;5004618;28;20034;-71
2021/07/07 12:16:53;;;;;;;6.70;1.67;;;24.30;57.20;;;;;;5004991;28;20082;-72
2021/07/07 12:19:20;;;;;;;9.48;1.90;;;24.20;57.10;;;;;;5001374;28;20057;-71
2021/07/07 12:21:53;;;;;;;6.15;1.83;;;24.10;58.50;;;;;;5005948;28;20025;-73
2021/07/07 12:24:22;;;;;;;7.95;2.13;;;24.10;57.50;;;;;;5005970;28;20029;-69
2021/07/07 12:26:57;;;;;;;3.95;1.40;;;24.00;56.20;;;;;;5006141;28;20360;-72
2021/07/07 12:29:26;;;;;;;7.55;2.00;;;24.00;56.20;;;;;;5003671;28;20022;-72
2021/07/07 12:31:56;;;;;;;6.70;1.88;;;23.90;54.90;;;;;;5006907;28;20030;-70
2021/07/07 12:34:28;;;;;;;6.07;1.63;;;23.90;55.10;;;;;;5006736;28;20372;-70
2021/07/07 12:36:57;;;;;;;12.05;2.13;;;23.80;55.10;;;;;;5004696;28;20115;-71
2021/07/07 12:39:24;;;;;;;7.60;1.67;;;23.80;55.90;;;;;;5006886;28;20022;-72
2021/07/07 12:42:09;;;;;;;3.65;1.50;;;23.90;55.20;;;;;;5006359;28;20026;-70
2021/07/07 12:44:37;;;;;;;5.72;1.60;;;23.80;54.10;;;;;;5010017;28;20037;-70
2021/07/07 12:47:17;;;;;;;4.82;1.60;;;23.80;54.80;;;;;;5011019;28;20380;-72
2021/07/07 12:49:51;;;;;;;4.57;1.50;;;23.80;54.40;;;;;;5012144;28;20022;-70
2021/07/07 12:52:21;;;;;;;7.22;1.98;;;23.80;54.40;;;;;;5011241;28;20566;-72
2021/07/07 12:55:11;;;;;;;5.97;1.65;;;23.80;55.00;;;;;;5012846;28;20084;-71